sensor_id;sensor_type;location;lat;lon;timestamp;temperature;humidity
11812;DHT22;5963;50.184;9.162;2023-02-01T00:00:33;4.30;99.90
11812;DHT22;5963;50.184;9.162;2023-02-01T00:03:03;4.30;99.90
11812;DHT22;5963;50.184;9.162;2023-02-01T00:05:33;4.30;99.90
11812;DHT22;5963;50.184;9.162;2023-02-01T00:08:03;4.30;99.90
11812;DHT22;5963;50.184;9.162;2023-02-01T00:10:33;4.30;99.90
11812;DHT22;5963;50.184;9.162;2023-02-01T00:13:04;4.30;99.90
11812;DHT22;5963;50.184;9.162;2023-02-01T00:15:34;4.40;99.90
11812;DHT22;5963;50.184;9.162;2023-02-01T00:18:04;4.30;99.90
11812;DHT22;5963;50.184;9.162;2023-02-01T00:20:34;4.30;99.90
11812;DHT22;5963;50.184;9.162;2023-02-01T00:23:03;4.30;99.90
11812;DHT22;5963;50.184;9.162;2023-02-01T00:25:35;4.20;99.90
11812;DHT22;5963;50.184;9.162;2023-02-01T00:28:06;4.20;99.90
11812;DHT22;5963;50.184;9.162;2023-02-01T00:30:36;4.20;99.90
11812;DHT22;5963;50.184;9.162;2023-02-01T00:33:06;4.20;99.90
11812;DHT22;5963;50.184;9.162;2023-02-01T00:35:36;4.20;99.90
11812;DHT22;5963;50.184;9.162;2023-02-01T00:38:06;4.20;99.90
11812;DHT22;5963;50.184;9.162;2023-02-01T00:40:36;4.20;99.90
11812;DHT22;5963;50.184;9.162;2023-02-01T00:43:07;4.20;99.90
11812;DHT22;5963;50.184;9.162;2023-02-01T00:45:37;4.30;99.90
11812;DHT22;5963;50.184;9.162;2023-02-01T00:48:08;4.30;99.90
11812;DHT22;5963;50.184;9.162;2023-02-01T00:50:37;4.30;99.90
11812;DHT22;5963;50.184;9.162;2023-02-01T00:53:10;4.30;99.90
11812;DHT22;5963;50.184;9.162;2023-02-01T00:55:40;4.40;99.90
11812;DHT22;5963;50.184;9.162;2023-02-01T00:58:11;4.40;99.90
11812;DHT22;5963;50.184;9.162;2023-02-01T01:00:39;4.40;99.90
11812;DHT22;5963;50.184;9.162;2023-02-01T01:03:09;4.50;99.90
11812;DHT22;5963;50.184;9.162;2023-02-01T01:05:46;4.40;99.90
11812;DHT22;5963;50.184;9.162;2023-02-01T01:08:17;4.40;99.90
11812;DHT22;5963;50.184;9.162;2023-02-01T01:10:46;4.40;99.90
11812;DHT22;5963;50.184;9.162;2023-02-01T01:13:19;4.50;99.90
11812;DHT22;5963;50.184;9.162;2023-02-01T01:15:49;4.40;99.90
11812;DHT22;5963;50.184;9.162;2023-02-01T01:18:19;4.50;99.90
11812;DHT22;5963;50.184;9.162;2023-02-01T01:20:49;4.50;99.90
11812;DHT22;5963;50.184;9.162;2023-02-01T01:23:19;4.40;99.90
11812;DHT22;5963;50.184;9.162;2023-02-01T01:25:49;4.50;99.90
11812;DHT22;5963;50.184;9.162;2023-02-01T01:28:21;4.40;99.90
11812;DHT22;5963;50.184;9.162;2023-02-01T01:30:53;4.50;99.90
11812;DHT22;5963;50.184;9.162;2023-02-01T01:33:23;4.50;99.90
11812;DHT22;5963;50.184;9.162;2023-02-01T01:35:53;4.50;99.90
11812;DHT22;5963;50.184;9.162;2023-02-01T01:38:22;4.40;99.90
11812;DHT22;5963;50.184;9.162;2023-02-01T01:40:52;4.40;99.90
11812;DHT22;5963;50.184;9.162;2023-02-01T01:43:23;4.50;99.90
11812;DHT22;5963;50.184;9.162;2023-02-01T01:45:53;4.50;99.90
11812;DHT22;5963;50.184;9.162;2023-02-01T01:48:27;4.40;99.90
11812;DHT22;5963;50.184;9.162;2023-02-01T01:51:00;4.40;99.90
11812;DHT22;5963;50.184;9.162;2023-02-01T01:53:37;4.50;99.90
11812;DHT22;5963;50.184;9.162;2023-02-01T01:56:08;4.50;99.90
11812;DHT22;5963;50.184;9.162;2023-02-01T01:58:38;4.50;99.90
11812;DHT22;5963;50.184;9.162;2023-02-01T02:01:07;4.50;99.90
11812;DHT22;5963;50.184;9.162;2023-02-01T02:03:41;4.60;99.90
11812;DHT22;5963;50.184;9.162;2023-02-01T02:06:18;4.50;99.90
11812;DHT22;5963;50.184;9.162;2023-02-01T02:08:50;4.50;99.90
11812;DHT22;5963;50.184;9.162;2023-02-01T02:11:21;4.50;99.90
11812;DHT22;5963;50.184;9.162;2023-02-01T02:13:56;4.50;99.90
11812;DHT22;5963;50.184;9.162;2023-02-01T02:16:40;4.60;99.90
11812;DHT22;5963;50.184;9.162;2023-02-01T02:19:29;4.50;99.90
11812;DHT22;5963;50.184;9.162;2023-02-01T02:28:38;4.50;99.90
11812;DHT22;5963;50.184;9.162;2023-02-01T02:31:37;4.50;99.90
11812;DHT22;5963;50.184;9.162;2023-02-01T02:34:17;4.60;99.90
11812;DHT22;5963;50.184;9.162;2023-02-01T02:36:57;4.60;99.90
11812;DHT22;5963;50.184;9.162;2023-02-01T02:39:37;4.60;99.90
11812;DHT22;5963;50.184;9.162;2023-02-01T02:42:16;4.60;99.90
11812;DHT22;5963;50.184;9.162;2023-02-01T02:45:11;4.60;99.90
11812;DHT22;5963;50.184;9.162;2023-02-01T02:48:06;4.70;99.90
11812;DHT22;5963;50.184;9.162;2023-02-01T02:50:44;4.70;99.90
11812;DHT22;5963;50.184;9.162;2023-02-01T02:53:41;4.80;99.90
11812;DHT22;5963;50.184;9.162;2023-02-01T02:56:30;4.80;99.90
11812;DHT22;5963;50.184;9.162;2023-02-01T02:59:20;4.80;99.90
11812;DHT22;5963;50.184;9.162;2023-02-01T03:02:09;4.70;99.90
11812;DHT22;5963;50.184;9.162;2023-02-01T03:04:59;4.80;99.90
11812;DHT22;5963;50.184;9.162;2023-02-01T03:10:37;4.80;99.90
11812;DHT22;5963;50.184;9.162;2023-02-01T03:13:12;4.80;99.90
11812;DHT22;5963;50.184;9.162;2023-02-01T03:15:46;4.80;99.90
11812;DHT22;5963;50.184;9.162;2023-02-01T03:18:21;4.80;99.90
11812;DHT22;5963;50.184;9.162;2023-02-01T03:20:55;4.80;99.90
11812;DHT22;5963;50.184;9.162;2023-02-01T03:23:31;4.70;99.90
11812;DHT22;5963;50.184;9.162;2023-02-01T03:26:04;4.70;99.90
11812;DHT22;5963;50.184;9.162;2023-02-01T03:28:36;4.70;99.90
11812;DHT22;5963;50.184;9.162;2023-02-01T03:31:09;4.70;99.90
11812;DHT22;5963;50.184;9.162;2023-02-01T03:33:39;4.70;99.90
11812;DHT22;5963;50.184;9.162;2023-02-01T03:36:17;4.70;99.90
11812;DHT22;5963;50.184;9.162;2023-02-01T03:38:50;4.70;99.90
11812;DHT22;5963;50.184;9.162;2023-02-01T03:41:27;4.70;99.90
11812;DHT22;5963;50.184;9.162;2023-02-01T03:44:01;4.70;99.90
11812;DHT22;5963;50.184;9.162;2023-02-01T03:46:35;4.70;99.90
11812;DHT22;5963;50.184;9.162;2023-02-01T03:49:09;4.80;99.90
11812;DHT22;5963;50.184;9.162;2023-02-01T03:51:40;4.80;99.90
11812;DHT22;5963;50.184;9.162;2023-02-01T03:54:13;4.80;99.90
11812;DHT22;5963;50.184;9.162;2023-02-01T03:56:47;4.70;99.90
11812;DHT22;5963;50.184;9.162;2023-02-01T03:59:17;4.80;99.90
11812;DHT22;5963;50.184;9.162;2023-02-01T04:01:47;4.70;99.90
11812;DHT22;5963;50.184;9.162;2023-02-01T04:04:17;4.70;99.90
11812;DHT22;5963;50.184;9.162;2023-02-01T04:06:49;4.70;99.90
11812;DHT22;5963;50.184;9.162;2023-02-01T04:09:19;4.70;99.90
11812;DHT22;5963;50.184;9.162;2023-02-01T04:11:50;4.70;99.90
11812;DHT22;5963;50.184;9.162;2023-02-01T04:14:20;4.60;99.90
11812;DHT22;5963;50.184;9.162;2023-02-01T04:16:50;4.60;99.90
11812;DHT22;5963;50.184;9.162;2023-02-01T04:19:20;4.60;99.90
11812;DHT22;5963;50.184;9.162;2023-02-01T04:21:50;4.50;99.90
11812;DHT22;5963;50.184;9.162;2023-02-01T04:24:19;4.60;99.90
11812;DHT22;5963;50.184;9.162;2023-02-01T04:26:51;4.60;99.90
11812;DHT22;5963;50.184;9.162;2023-02-01T04:29:20;4.50;99.90
11812;DHT22;5963;50.184;9.162;2023-02-01T04:31:51;4.50;99.90
11812;DHT22;5963;50.184;9.162;2023-02-01T04:34:21;4.60;99.90
11812;DHT22;5963;50.184;9.162;2023-02-01T04:36:53;4.60;99.90
11812;DHT22;5963;50.184;9.162;2023-02-01T04:39:23;4.60;99.90
11812;DHT22;5963;50.184;9.162;2023-02-01T04:41:54;4.60;99.90
11812;DHT22;5963;50.184;9.162;2023-02-01T04:44:24;4.70;99.90
11812;DHT22;5963;50.184;9.162;2023-02-01T04:46:54;4.70;99.90
11812;DHT22;5963;50.184;9.162;2023-02-01T04:49:24;4.70;99.90
11812;DHT22;5963;50.184;9.162;2023-02-01T04:51:55;4.70;99.90
11812;DHT22;5963;50.184;9.162;2023-02-01T04:54:26;4.70;99.90
11812;DHT22;5963;50.184;9.162;2023-02-01T04:56:57;4.70;99.90
11812;DHT22;5963;50.184;9.162;2023-02-01T04:59:28;4.60;99.90
11812;DHT22;5963;50.184;9.162;2023-02-01T05:01:57;4.70;99.90
11812;DHT22;5963;50.184;9.162;2023-02-01T05:04:27;4.70;99.90
11812;DHT22;5963;50.184;9.162;2023-02-01T05:06:57;4.70;99.90
11812;DHT22;5963;50.184;9.162;2023-02-01T05:09:27;4.80;99.90
11812;DHT22;5963;50.184;9.162;2023-02-01T05:11:58;4.70;99.90
11812;DHT22;5963;50.184;9.162;2023-02-01T05:14:57;4.70;99.90
11812;DHT22;5963;50.184;9.162;2023-02-01T05:17:26;4.80;99.90
11812;DHT22;5963;50.184;9.162;2023-02-01T05:19:56;4.70;99.90
11812;DHT22;5963;50.184;9.162;2023-02-01T05:22:26;4.80;99.90
11812;DHT22;5963;50.184;9.162;2023-02-01T05:24:56;4.70;99.90
11812;DHT22;5963;50.184;9.162;2023-02-01T05:27:27;4.70;99.90
11812;DHT22;5963;50.184;9.162;2023-02-01T05:29:57;4.70;99.90
11812;DHT22;5963;50.184;9.162;2023-02-01T05:32:27;4.70;99.90
11812;DHT22;5963;50.184;9.162;2023-02-01T05:34:57;4.70;99.90
11812;DHT22;5963;50.184;9.162;2023-02-01T05:37:27;4.70;99.90
11812;DHT22;5963;50.184;9.162;2023-02-01T05:39:57;4.80;99.90
11812;DHT22;5963;50.184;9.162;2023-02-01T05:42:28;4.70;99.90
11812;DHT22;5963;50.184;9.162;2023-02-01T05:44:58;4.70;99.90
11812;DHT22;5963;50.184;9.162;2023-02-01T05:47:27;4.60;99.90
11812;DHT22;5963;50.184;9.162;2023-02-01T05:49:57;4.70;99.90
11812;DHT22;5963;50.184;9.162;2023-02-01T05:52:27;4.60;99.90
11812;DHT22;5963;50.184;9.162;2023-02-01T05:54:57;4.60;99.90
11812;DHT22;5963;50.184;9.162;2023-02-01T05:57:28;4.60;99.90
11812;DHT22;5963;50.184;9.162;2023-02-01T05:59:58;4.60;99.90
11812;DHT22;5963;50.184;9.162;2023-02-01T06:02:28;4.60;99.90
11812;DHT22;5963;50.184;9.162;2023-02-01T06:04:58;4.60;99.90
11812;DHT22;5963;50.184;9.162;2023-02-01T06:07:27;4.70;99.90
11812;DHT22;5963;50.184;9.162;2023-02-01T06:09:57;4.60;99.90
11812;DHT22;5963;50.184;9.162;2023-02-01T06:12:28;4.60;99.90
11812;DHT22;5963;50.184;9.162;2023-02-01T06:14:58;4.60;99.90
11812;DHT22;5963;50.184;9.162;2023-02-01T06:17:28;4.50;99.90
11812;DHT22;5963;50.184;9.162;2023-02-01T06:19:58;4.50;99.90
11812;DHT22;5963;50.184;9.162;2023-02-01T06:22:27;4.40;99.90
11812;DHT22;5963;50.184;9.162;2023-02-01T06:24:57;4.40;99.90
11812;DHT22;5963;50.184;9.162;2023-02-01T06:27:29;4.40;99.90
11812;DHT22;5963;50.184;9.162;2023-02-01T06:29:59;4.40;99.90
11812;DHT22;5963;50.184;9.162;2023-02-01T06:32:28;4.40;99.90
11812;DHT22;5963;50.184;9.162;2023-02-01T06:34:58;4.40;99.90
11812;DHT22;5963;50.184;9.162;2023-02-01T06:37:28;4.40;99.90
11812;DHT22;5963;50.184;9.162;2023-02-01T06:39:58;4.40;99.90
11812;DHT22;5963;50.184;9.162;2023-02-01T06:42:29;4.50;99.90
11812;DHT22;5963;50.184;9.162;2023-02-01T06:45:00;4.50;99.90
11812;DHT22;5963;50.184;9.162;2023-02-01T06:47:29;4.60;99.90
11812;DHT22;5963;50.184;9.162;2023-02-01T06:49:59;4.60;99.90
11812;DHT22;5963;50.184;9.162;2023-02-01T06:52:29;4.60;99.90
11812;DHT22;5963;50.184;9.162;2023-02-01T06:55:00;4.60;99.90
11812;DHT22;5963;50.184;9.162;2023-02-01T06:57:30;4.60;99.90
11812;DHT22;5963;50.184;9.162;2023-02-01T07:00:03;4.60;99.90
11812;DHT22;5963;50.184;9.162;2023-02-01T07:05:01;4.60;99.90
11812;DHT22;5963;50.184;9.162;2023-02-01T07:07:31;4.60;99.90
11812;DHT22;5963;50.184;9.162;2023-02-01T07:10:01;4.60;99.90
11812;DHT22;5963;50.184;9.162;2023-02-01T07:12:32;4.60;99.90
11812;DHT22;5963;50.184;9.162;2023-02-01T07:15:02;4.50;99.90
11812;DHT22;5963;50.184;9.162;2023-02-01T07:17:32;4.50;99.90
11812;DHT22;5963;50.184;9.162;2023-02-01T07:20:02;4.50;99.90
11812;DHT22;5963;50.184;9.162;2023-02-01T07:22:32;4.50;99.90
11812;DHT22;5963;50.184;9.162;2023-02-01T07:25:02;4.50;99.90
11812;DHT22;5963;50.184;9.162;2023-02-01T07:27:37;4.50;99.90
11812;DHT22;5963;50.184;9.162;2023-02-01T07:30:08;4.50;99.90
11812;DHT22;5963;50.184;9.162;2023-02-01T07:32:38;4.50;99.90
11812;DHT22;5963;50.184;9.162;2023-02-01T07:35:09;4.50;99.90
11812;DHT22;5963;50.184;9.162;2023-02-01T07:37:39;4.50;99.90
11812;DHT22;5963;50.184;9.162;2023-02-01T07:40:11;4.50;99.90
11812;DHT22;5963;50.184;9.162;2023-02-01T07:42:42;4.50;99.90
11812;DHT22;5963;50.184;9.162;2023-02-01T07:45:12;4.50;99.90
11812;DHT22;5963;50.184;9.162;2023-02-01T07:47:50;4.50;99.90
11812;DHT22;5963;50.184;9.162;2023-02-01T07:50:20;4.60;99.90
11812;DHT22;5963;50.184;9.162;2023-02-01T07:52:50;4.60;99.90
11812;DHT22;5963;50.184;9.162;2023-02-01T07:55:21;4.60;99.90
11812;DHT22;5963;50.184;9.162;2023-02-01T07:57:52;4.60;99.90
11812;DHT22;5963;50.184;9.162;2023-02-01T08:00:22;4.60;99.90
11812;DHT22;5963;50.184;9.162;2023-02-01T08:03:09;4.50;99.90
11812;DHT22;5963;50.184;9.162;2023-02-01T08:05:39;4.60;99.90
11812;DHT22;5963;50.184;9.162;2023-02-01T08:08:09;4.60;99.90
11812;DHT22;5963;50.184;9.162;2023-02-01T08:10:39;4.60;99.90
11812;DHT22;5963;50.184;9.162;2023-02-01T08:13:10;4.60;99.90
11812;DHT22;5963;50.184;9.162;2023-02-01T08:15:40;4.60;99.90
11812;DHT22;5963;50.184;9.162;2023-02-01T08:18:09;4.60;99.90
11812;DHT22;5963;50.184;9.162;2023-02-01T08:20:40;4.60;99.90
11812;DHT22;5963;50.184;9.162;2023-02-01T08:23:16;4.60;99.90
11812;DHT22;5963;50.184;9.162;2023-02-01T08:25:46;4.60;99.90
11812;DHT22;5963;50.184;9.162;2023-02-01T08:28:17;4.70;99.90
11812;DHT22;5963;50.184;9.162;2023-02-01T08:30:47;4.70;99.90
11812;DHT22;5963;50.184;9.162;2023-02-01T08:33:17;4.70;99.90
11812;DHT22;5963;50.184;9.162;2023-02-01T08:35:47;4.70;99.90
11812;DHT22;5963;50.184;9.162;2023-02-01T08:38:17;4.70;99.90
11812;DHT22;5963;50.184;9.162;2023-02-01T08:40:47;4.70;99.90
11812;DHT22;5963;50.184;9.162;2023-02-01T08:43:18;4.80;99.90
11812;DHT22;5963;50.184;9.162;2023-02-01T08:45:48;4.80;99.90
11812;DHT22;5963;50.184;9.162;2023-02-01T08:48:19;4.80;99.90
11812;DHT22;5963;50.184;9.162;2023-02-01T08:50:49;4.70;99.90
11812;DHT22;5963;50.184;9.162;2023-02-01T08:53:18;4.80;99.90
11812;DHT22;5963;50.184;9.162;2023-02-01T08:55:49;4.80;99.90
11812;DHT22;5963;50.184;9.162;2023-02-01T08:58:20;4.80;99.90
11812;DHT22;5963;50.184;9.162;2023-02-01T09:00:50;4.70;99.90
11812;DHT22;5963;50.184;9.162;2023-02-01T09:03:20;4.70;99.90
11812;DHT22;5963;50.184;9.162;2023-02-01T09:05:50;4.70;99.90
11812;DHT22;5963;50.184;9.162;2023-02-01T09:08:21;4.80;99.90
11812;DHT22;5963;50.184;9.162;2023-02-01T09:10:51;4.80;99.90
11812;DHT22;5963;50.184;9.162;2023-02-01T09:13:22;4.80;99.90
11812;DHT22;5963;50.184;9.162;2023-02-01T09:15:53;4.80;99.90
11812;DHT22;5963;50.184;9.162;2023-02-01T09:18:23;4.80;99.90
11812;DHT22;5963;50.184;9.162;2023-02-01T09:20:53;4.90;99.90
11812;DHT22;5963;50.184;9.162;2023-02-01T09:23:23;4.90;99.90
11812;DHT22;5963;50.184;9.162;2023-02-01T09:25:53;4.90;99.90
11812;DHT22;5963;50.184;9.162;2023-02-01T09:28:24;4.90;99.90
11812;DHT22;5963;50.184;9.162;2023-02-01T09:30:58;4.90;99.90
11812;DHT22;5963;50.184;9.162;2023-02-01T09:33:29;5.00;99.90
11812;DHT22;5963;50.184;9.162;2023-02-01T09:36:02;5.00;99.90
11812;DHT22;5963;50.184;9.162;2023-02-01T09:38:33;5.00;99.90
11812;DHT22;5963;50.184;9.162;2023-02-01T09:41:10;4.90;99.90
11812;DHT22;5963;50.184;9.162;2023-02-01T09:43:54;5.00;99.90
11812;DHT22;5963;50.184;9.162;2023-02-01T09:46:28;5.00;99.90
11812;DHT22;5963;50.184;9.162;2023-02-01T09:49:00;5.00;99.90
11812;DHT22;5963;50.184;9.162;2023-02-01T09:51:33;5.00;99.90
11812;DHT22;5963;50.184;9.162;2023-02-01T09:54:09;5.10;99.90
11812;DHT22;5963;50.184;9.162;2023-02-01T09:56:44;5.10;99.90
11812;DHT22;5963;50.184;9.162;2023-02-01T09:59:26;5.10;99.90
11812;DHT22;5963;50.184;9.162;2023-02-01T10:01:59;5.10;99.90
11812;DHT22;5963;50.184;9.162;2023-02-01T10:04:30;5.20;99.90
11812;DHT22;5963;50.184;9.162;2023-02-01T10:07:12;5.20;99.90
11812;DHT22;5963;50.184;9.162;2023-02-01T10:09:52;5.20;99.90
11812;DHT22;5963;50.184;9.162;2023-02-01T10:12:56;5.20;99.90
11812;DHT22;5963;50.184;9.162;2023-02-01T10:15:44;5.20;99.90
11812;DHT22;5963;50.184;9.162;2023-02-01T10:18:36;5.20;99.90
11812;DHT22;5963;50.184;9.162;2023-02-01T10:21:14;5.20;99.90
11812;DHT22;5963;50.184;9.162;2023-02-01T10:24:09;5.20;99.90
11812;DHT22;5963;50.184;9.162;2023-02-01T10:26:47;5.20;99.90
11812;DHT22;5963;50.184;9.162;2023-02-01T10:29:22;5.20;99.90
11812;DHT22;5963;50.184;9.162;2023-02-01T10:31:56;5.20;99.90
11812;DHT22;5963;50.184;9.162;2023-02-01T10:34:29;5.20;99.90
11812;DHT22;5963;50.184;9.162;2023-02-01T10:37:11;5.20;99.90
11812;DHT22;5963;50.184;9.162;2023-02-01T10:39:48;5.20;99.90
11812;DHT22;5963;50.184;9.162;2023-02-01T10:42:22;5.10;99.90
11812;DHT22;5963;50.184;9.162;2023-02-01T10:44:53;5.10;99.90
11812;DHT22;5963;50.184;9.162;2023-02-01T10:47:25;5.20;99.90
11812;DHT22;5963;50.184;9.162;2023-02-01T10:49:59;5.20;99.90
11812;DHT22;5963;50.184;9.162;2023-02-01T10:52:36;5.20;99.90
11812;DHT22;5963;50.184;9.162;2023-02-01T10:55:26;5.30;99.90
11812;DHT22;5963;50.184;9.162;2023-02-01T10:57:56;5.30;99.90
11812;DHT22;5963;50.184;9.162;2023-02-01T11:00:27;5.30;99.90
11812;DHT22;5963;50.184;9.162;2023-02-01T11:03:03;5.30;99.90
11812;DHT22;5963;50.184;9.162;2023-02-01T11:05:48;5.30;99.90
11812;DHT22;5963;50.184;9.162;2023-02-01T11:08:19;5.40;99.90
11812;DHT22;5963;50.184;9.162;2023-02-01T11:10:58;5.40;99.90
11812;DHT22;5963;50.184;9.162;2023-02-01T11:13:36;5.50;99.90
11812;DHT22;5963;50.184;9.162;2023-02-01T11:16:09;5.50;99.90
11812;DHT22;5963;50.184;9.162;2023-02-01T11:18:42;5.40;99.90
11812;DHT22;5963;50.184;9.162;2023-02-01T11:21:12;5.50;99.90
11812;DHT22;5963;50.184;9.162;2023-02-01T11:23:45;5.50;99.90
11812;DHT22;5963;50.184;9.162;2023-02-01T11:26:20;5.50;99.90
11812;DHT22;5963;50.184;9.162;2023-02-01T11:28:59;5.50;99.90
11812;DHT22;5963;50.184;9.162;2023-02-01T11:31:30;5.50;99.90
11812;DHT22;5963;50.184;9.162;2023-02-01T11:34:09;5.60;99.90
11812;DHT22;5963;50.184;9.162;2023-02-01T11:36:42;5.50;99.90
11812;DHT22;5963;50.184;9.162;2023-02-01T11:39:21;5.50;99.90
11812;DHT22;5963;50.184;9.162;2023-02-01T11:42:00;5.60;99.90
11812;DHT22;5963;50.184;9.162;2023-02-01T11:44:34;5.60;99.90
11812;DHT22;5963;50.184;9.162;2023-02-01T11:47:22;5.60;99.90
11812;DHT22;5963;50.184;9.162;2023-02-01T11:49:55;5.60;99.90
11812;DHT22;5963;50.184;9.162;2023-02-01T11:52:36;5.60;99.90
11812;DHT22;5963;50.184;9.162;2023-02-01T11:58:20;5.60;99.90
11812;DHT22;5963;50.184;9.162;2023-02-01T12:01:08;5.70;99.90
11812;DHT22;5963;50.184;9.162;2023-02-01T12:06:48;5.70;99.90
11812;DHT22;5963;50.184;9.162;2023-02-01T12:12:21;5.70;99.90
11812;DHT22;5963;50.184;9.162;2023-02-01T12:15:16;5.70;99.90
11812;DHT22;5963;50.184;9.162;2023-02-01T12:17:58;5.70;99.90
11812;DHT22;5963;50.184;9.162;2023-02-01T12:20:47;5.70;99.90
11812;DHT22;5963;50.184;9.162;2023-02-01T12:23:32;5.70;99.90
11812;DHT22;5963;50.184;9.162;2023-02-01T12:26:26;5.70;99.90
11812;DHT22;5963;50.184;9.162;2023-02-01T12:29:15;5.70;99.90
11812;DHT22;5963;50.184;9.162;2023-02-01T12:31:59;5.80;99.90
11812;DHT22;5963;50.184;9.162;2023-02-01T12:34:52;5.70;99.90
11812;DHT22;5963;50.184;9.162;2023-02-01T12:37:35;5.70;99.90
11812;DHT22;5963;50.184;9.162;2023-02-01T12:40:20;5.70;99.90
11812;DHT22;5963;50.184;9.162;2023-02-01T12:42:57;5.80;99.90
11812;DHT22;5963;50.184;9.162;2023-02-01T12:45:33;5.80;99.90
11812;DHT22;5963;50.184;9.162;2023-02-01T12:48:16;5.80;99.90
11812;DHT22;5963;50.184;9.162;2023-02-01T12:50:52;5.80;99.90
11812;DHT22;5963;50.184;9.162;2023-02-01T12:53:27;5.80;99.90
11812;DHT22;5963;50.184;9.162;2023-02-01T12:56:05;5.80;99.90
11812;DHT22;5963;50.184;9.162;2023-02-01T12:58:41;5.80;99.90
11812;DHT22;5963;50.184;9.162;2023-02-01T13:01:14;5.80;99.90
11812;DHT22;5963;50.184;9.162;2023-02-01T13:03:53;5.90;99.90
11812;DHT22;5963;50.184;9.162;2023-02-01T13:06:26;5.90;99.90
11812;DHT22;5963;50.184;9.162;2023-02-01T13:09:02;5.90;99.90
11812;DHT22;5963;50.184;9.162;2023-02-01T13:11:36;5.90;99.90
11812;DHT22;5963;50.184;9.162;2023-02-01T13:14:11;5.80;99.90
11812;DHT22;5963;50.184;9.162;2023-02-01T13:16:46;5.80;99.90
11812;DHT22;5963;50.184;9.162;2023-02-01T13:19:20;5.80;99.90
11812;DHT22;5963;50.184;9.162;2023-02-01T13:21:53;5.90;99.90
11812;DHT22;5963;50.184;9.162;2023-02-01T13:24:37;5.90;99.90
11812;DHT22;5963;50.184;9.162;2023-02-01T13:27:10;5.90;99.90
11812;DHT22;5963;50.184;9.162;2023-02-01T13:29:45;5.90;99.90
11812;DHT22;5963;50.184;9.162;2023-02-01T13:35:54;5.90;99.90
11812;DHT22;5963;50.184;9.162;2023-02-01T13:39:02;6.00;99.90
11812;DHT22;5963;50.184;9.162;2023-02-01T13:41:35;6.10;99.90
11812;DHT22;5963;50.184;9.162;2023-02-01T13:44:15;6.00;99.90
11812;DHT22;5963;50.184;9.162;2023-02-01T13:46:48;6.00;99.90
11812;DHT22;5963;50.184;9.162;2023-02-01T13:49:25;6.00;99.90
11812;DHT22;5963;50.184;9.162;2023-02-01T13:51:57;6.00;99.90
11812;DHT22;5963;50.184;9.162;2023-02-01T13:54:29;6.10;99.90
11812;DHT22;5963;50.184;9.162;2023-02-01T13:57:01;6.00;99.90
11812;DHT22;5963;50.184;9.162;2023-02-01T13:59:50;5.90;99.90
11812;DHT22;5963;50.184;9.162;2023-02-01T14:02:47;6.00;99.90
11812;DHT22;5963;50.184;9.162;2023-02-01T14:05:57;6.00;99.90
11812;DHT22;5963;50.184;9.162;2023-02-01T14:11:37;6.00;99.90
11812;DHT22;5963;50.184;9.162;2023-02-01T14:17:35;6.00;99.90
11812;DHT22;5963;50.184;9.162;2023-02-01T14:23:37;6.20;99.90
11812;DHT22;5963;50.184;9.162;2023-02-01T14:26:18;6.20;99.90
11812;DHT22;5963;50.184;9.162;2023-02-01T14:28:58;6.30;99.90
11812;DHT22;5963;50.184;9.162;2023-02-01T14:31:42;6.30;99.90
11812;DHT22;5963;50.184;9.162;2023-02-01T14:34:16;6.30;99.90
11812;DHT22;5963;50.184;9.162;2023-02-01T14:36:58;6.40;99.90
11812;DHT22;5963;50.184;9.162;2023-02-01T14:39:31;6.40;99.90
11812;DHT22;5963;50.184;9.162;2023-02-01T14:42:04;6.30;99.90
11812;DHT22;5963;50.184;9.162;2023-02-01T14:44:35;6.30;99.90
11812;DHT22;5963;50.184;9.162;2023-02-01T14:47:32;6.30;99.90
11812;DHT22;5963;50.184;9.162;2023-02-01T14:50:12;6.30;99.90
11812;DHT22;5963;50.184;9.162;2023-02-01T14:52:46;6.30;99.90
11812;DHT22;5963;50.184;9.162;2023-02-01T14:55:20;6.40;99.90
11812;DHT22;5963;50.184;9.162;2023-02-01T14:57:52;6.40;99.90
11812;DHT22;5963;50.184;9.162;2023-02-01T15:00:26;6.30;99.90
11812;DHT22;5963;50.184;9.162;2023-02-01T15:03:12;6.30;99.90
11812;DHT22;5963;50.184;9.162;2023-02-01T15:05:45;6.30;99.90
11812;DHT22;5963;50.184;9.162;2023-02-01T15:08:18;6.40;99.90
11812;DHT22;5963;50.184;9.162;2023-02-01T15:10:51;6.40;99.90
11812;DHT22;5963;50.184;9.162;2023-02-01T15:13:24;6.50;99.90
11812;DHT22;5963;50.184;9.162;2023-02-01T15:16:04;6.50;99.90
11812;DHT22;5963;50.184;9.162;2023-02-01T15:18:34;6.50;99.90
11812;DHT22;5963;50.184;9.162;2023-02-01T15:21:13;6.50;99.90
11812;DHT22;5963;50.184;9.162;2023-02-01T15:24:14;6.50;99.90
11812;DHT22;5963;50.184;9.162;2023-02-01T15:26:43;6.40;99.90
11812;DHT22;5963;50.184;9.162;2023-02-01T15:29:14;6.50;99.90
11812;DHT22;5963;50.184;9.162;2023-02-01T15:31:45;6.50;99.90
11812;DHT22;5963;50.184;9.162;2023-02-01T15:34:15;6.50;99.90
11812;DHT22;5963;50.184;9.162;2023-02-01T15:36:47;6.50;99.90
11812;DHT22;5963;50.184;9.162;2023-02-01T15:39:30;6.60;99.90
11812;DHT22;5963;50.184;9.162;2023-02-01T15:42:09;6.60;99.90
11812;DHT22;5963;50.184;9.162;2023-02-01T15:44:41;6.60;99.90
11812;DHT22;5963;50.184;9.162;2023-02-01T15:47:18;6.60;99.90
11812;DHT22;5963;50.184;9.162;2023-02-01T15:49:52;6.60;99.90
11812;DHT22;5963;50.184;9.162;2023-02-01T15:52:30;6.60;99.90
11812;DHT22;5963;50.184;9.162;2023-02-01T15:55:04;6.60;99.90
11812;DHT22;5963;50.184;9.162;2023-02-01T15:57:38;6.60;99.90
11812;DHT22;5963;50.184;9.162;2023-02-01T16:00:22;6.70;99.90
11812;DHT22;5963;50.184;9.162;2023-02-01T16:02:57;6.60;99.90
11812;DHT22;5963;50.184;9.162;2023-02-01T16:05:31;6.60;99.90
11812;DHT22;5963;50.184;9.162;2023-02-01T16:08:09;6.60;99.90
11812;DHT22;5963;50.184;9.162;2023-02-01T16:10:42;6.60;99.90
11812;DHT22;5963;50.184;9.162;2023-02-01T16:13:12;6.50;99.90
11812;DHT22;5963;50.184;9.162;2023-02-01T16:15:42;6.60;99.90
11812;DHT22;5963;50.184;9.162;2023-02-01T16:18:13;6.60;99.90
11812;DHT22;5963;50.184;9.162;2023-02-01T16:20:47;6.60;99.90
11812;DHT22;5963;50.184;9.162;2023-02-01T16:23:18;6.70;99.90
11812;DHT22;5963;50.184;9.162;2023-02-01T16:25:48;6.60;99.90
11812;DHT22;5963;50.184;9.162;2023-02-01T16:28:18;6.70;99.90
11812;DHT22;5963;50.184;9.162;2023-02-01T16:30:49;6.70;99.90
11812;DHT22;5963;50.184;9.162;2023-02-01T16:33:20;6.60;99.90
11812;DHT22;5963;50.184;9.162;2023-02-01T16:35:52;6.60;99.90
11812;DHT22;5963;50.184;9.162;2023-02-01T16:38:23;6.60;99.90
11812;DHT22;5963;50.184;9.162;2023-02-01T16:40:52;6.60;99.90
11812;DHT22;5963;50.184;9.162;2023-02-01T16:43:24;6.50;99.90
11812;DHT22;5963;50.184;9.162;2023-02-01T16:45:58;6.50;99.90
11812;DHT22;5963;50.184;9.162;2023-02-01T16:48:32;6.50;99.90
11812;DHT22;5963;50.184;9.162;2023-02-01T16:51:04;6.50;99.90
11812;DHT22;5963;50.184;9.162;2023-02-01T16:53:38;6.50;99.90
11812;DHT22;5963;50.184;9.162;2023-02-01T16:56:23;6.50;99.90
11812;DHT22;5963;50.184;9.162;2023-02-01T16:58:54;6.60;99.90
11812;DHT22;5963;50.184;9.162;2023-02-01T17:01:25;6.50;99.90
11812;DHT22;5963;50.184;9.162;2023-02-01T17:03:55;6.60;99.90
11812;DHT22;5963;50.184;9.162;2023-02-01T17:06:27;6.60;99.90
11812;DHT22;5963;50.184;9.162;2023-02-01T17:08:59;6.50;99.90
11812;DHT22;5963;50.184;9.162;2023-02-01T17:11:30;6.60;99.90
11812;DHT22;5963;50.184;9.162;2023-02-01T17:14:04;6.60;99.90
11812;DHT22;5963;50.184;9.162;2023-02-01T17:16:42;6.60;99.90
11812;DHT22;5963;50.184;9.162;2023-02-01T17:19:15;6.50;99.90
11812;DHT22;5963;50.184;9.162;2023-02-01T17:21:47;6.50;99.90